Time;durP1;ratioP1;P1;durP2;ratioP2;P2;SDS_P1;SDS_P2;PMS_P1;PMS_P2;Temp;Humidity;BMP_temperature;BMP_pressure;BME280_temperature;BME280_humidity;BME280_pressure;Samples;Min_cycle;Max_cycle;Signal;HPM_P1;HPM_P2
2021/11/19 00:00:50;;;;;;;33.78;18.05;;;;;;;9.09;100.00;101836.00;5021159;28;20057;-80
2021/11/19 00:03:17;;;;;;;34.63;18.63;;;;;;;9.07;100.00;101838.59;5021137;28;20068;-82
2021/11/19 00:05:46;;;;;;;35.45;17.75;;;;;;;9.08;100.00;101853.38;5014252;28;21228;-80
2021/11/19 00:08:14;;;;;;;33.45;19.20;;;;;;;9.10;100.00;101849.06;4995957;28;20060;-84
2021/11/19 00:10:41;;;;;;;34.80;18.25;;;;;;;9.12;100.00;101851.69;5021858;28;20051;-81
2021/11/19 00:13:07;;;;;;;29.45;15.93;;;;;;;9.13;100.00;101850.84;5019341;28;20140;-82
2021/11/19 00:15:35;;;;;;;37.50;17.85;;;;;;;9.14;100.00;101841.28;4998942;28;20048;-81
2021/11/19 00:18:03;;;;;;;34.22;18.45;;;;;;;9.15;100.00;101851.78;5015437;28;20497;-82
2021/11/19 00:20:32;;;;;;;28.17;16.33;;;;;;;9.18;100.00;101857.03;5018873;28;20065;-80
2021/11/19 00:23:02;;;;;;;31.65;17.90;;;;;;;9.20;100.00;101857.06;5013662;28;20057;-81
2021/11/19 00:25:29;;;;;;;32.90;15.52;;;;;;;9.23;100.00;101852.75;5017193;28;20448;-78
2021/11/19 00:27:56;;;;;;;27.38;15.25;;;;;;;9.25;100.00;101852.78;5013402;28;20049;-85
2021/11/19 00:30:25;;;;;;;30.40;16.00;;;;;;;9.26;100.00;101852.81;5015060;28;20120;-80
2021/11/19 00:32:53;;;;;;;30.73;15.20;;;;;;;9.31;100.00;101852.00;5015270;28;20041;-78
2021/11/19 00:35:20;;;;;;;25.50;15.00;;;;;;;9.31;100.00;101850.28;5017251;28;20439;-86
2021/11/19 00:37:52;;;;;;;25.58;15.52;;;;;;;9.31;100.00;101845.03;5013312;28;20131;-80
2021/11/19 00:40:30;;;;;;;24.92;13.85;;;;;;;9.32;100.00;101849.44;5001034;28;20067;-77
2021/11/19 00:42:57;;;;;;;27.40;15.52;;;;;;;9.33;100.00;101852.91;5014871;28;20044;-86
2021/11/19 00:45:25;;;;;;;28.13;17.08;;;;;;;9.37;100.00;101854.69;5015439;28;20045;-80
2021/11/19 00:47:57;;;;;;;28.92;15.73;;;;;;;9.37;100.00;101849.47;4993980;28;20057;-84
2021/11/19 00:50:35;;;;;;;29.85;15.68;;;;;;;9.38;100.00;101861.69;5015805;28;20049;-81
2021/11/19 00:53:03;;;;;;;35.80;17.35;;;;;;;9.40;100.00;101849.53;5013577;28;20063;-80
2021/11/19 00:55:30;;;;;;;31.30;16.95;;;;;;;9.38;100.00;101854.72;5012357;28;20053;-80
2021/11/19 00:57:57;;;;;;;33.55;16.30;;;;;;;9.40;100.00;101860.88;4999054;28;20128;-85
2021/11/19 01:00:32;;;;;;;25.50;17.55;;;;;;;9.41;100.00;101859.13;5017347;28;20041;-80
2021/11/19 01:02:59;;;;;;;30.40;17.00;;;;;;;9.42;100.00;101863.50;5015236;28;20057;-81
2021/11/19 01:05:26;;;;;;;32.42;17.40;;;;;;;9.42;100.00;101868.72;5017322;28;20335;-82
2021/11/19 01:07:52;;;;;;;32.72;16.30;;;;;;;9.41;100.00;101875.69;5017571;28;20057;-83
2021/11/19 01:10:26;;;;;;;30.95;17.15;;;;;;;9.41;100.00;101867.84;5022323;28;20760;-77
2021/11/19 01:12:53;;;;;;;32.92;17.90;;;;;;;9.46;100.00;101872.28;5023930;28;20038;-78
2021/11/19 01:15:33;;;;;;;28.90;18.38;;;;;;;9.45;100.00;101873.97;5028821;28;20041;-86
2021/11/19 01:18:26;;;;;;;30.77;16.88;;;;;;;9.47;100.00;101881.88;5030273;28;20042;-84
2021/11/19 01:21:17;;;;;;;31.50;19.10;;;;;;;9.47;100.00;101881.88;5023460;28;20125;-87
2021/11/19 01:23:45;;;;;;;35.03;18.77;;;;;;;9.47;100.00;101881.88;5042737;28;20049;-82
2021/11/19 01:26:20;;;;;;;34.63;18.27;;;;;;;9.44;100.00;101880.09;5038458;28;20033;-83
2021/11/19 01:28:51;;;;;;;33.72;17.73;;;;;;;9.46;100.00;101882.72;5041528;28;20049;-77
2021/11/19 01:31:25;;;;;;;27.88;17.85;;;;;;;9.48;100.00;101878.38;5029492;28;20053;-78
2021/11/19 01:33:52;;;;;;;29.75;17.85;;;;;;;9.47;100.00;101874.91;5040072;28;20038;-79
2021/11/19 01:36:21;;;;;;;32.10;18.38;;;;;;;9.50;100.00;101876.69;5006794;28;20506;-78
2021/11/19 01:38:49;;;;;;;28.40;17.58;;;;;;;9.48;100.00;101884.50;5008176;28;20042;-77
2021/11/19 01:41:25;;;;;;;26.70;17.05;;;;;;;9.49;100.00;101882.75;5025455;28;20122;-86
2021/11/19 01:43:55;;;;;;;40.00;18.90;;;;;;;9.48;100.00;101879.28;5033661;28;20050;-82
2021/11/19 01:46:27;;;;;;;33.67;17.30;;;;;;;9.46;100.00;101872.28;5006477;28;20053;-77
2021/11/19 01:48:56;;;;;;;30.95;17.75;;;;;;;9.48;100.00;101881.91;5021023;28;20034;-88
2021/11/19 01:51:38;;;;;;;28.98;17.33;;;;;;;9.48;100.00;101879.28;5004647;28;20046;-79
2021/11/19 01:54:13;;;;;;;25.73;16.00;;;;;;;9.47;100.00;101893.19;5035285;28;20049;-80
2021/11/19 01:57:01;;;;;;;28.08;15.85;;;;;;;9.47;100.00;101887.09;5015207;28;20049;-81
2021/11/19 01:59:42;;;;;;;31.10;16.80;;;;;;;9.46;100.00;101894.03;5016719;28;20052;-82
2021/11/19 02:02:19;;;;;;;27.90;16.73;;;;;;;9.47;100.00;101892.34;5014258;28;20052;-78
2021/11/19 02:04:53;;;;;;;28.30;16.60;;;;;;;9.45;100.00;101884.44;5011955;28;20660;-79
2021/11/19 02:07:30;;;;;;;28.83;15.05;;;;;;;9.48;100.00;101884.50;5010799;28;20045;-78
2021/11/19 02:10:14;;;;;;;28.08;14.82;;;;;;;9.47;100.00;101876.66;5017817;28;20080;-81
2021/11/19 02:13:32;;;;;;;;;;;;;;;9.49;100.00;101883.66;5017521;28;20041;-82
2021/11/19 02:16:05;;;;;;;26.48;13.70;;;;;;;9.49;100.00;101875.81;4981844;28;19929;-77
2021/11/19 02:18:38;;;;;;;19.20;13.20;;;;;;;9.52;100.00;101869.75;5013809;28;20066;-78
2021/11/19 02:21:13;;;;;;;17.92;12.43;;;;;;;9.54;100.00;101865.41;5024354;28;20050;-79
2021/11/19 02:24:04;;;;;;;19.88;12.20;;;;;;;9.60;100.00;101866.38;5002435;28;20049;-83
2021/11/19 02:26:49;;;;;;;21.33;12.25;;;;;;;9.66;100.00;101868.22;5018162;28;20045;-83
2021/11/19 02:29:16;;;;;;;23.40;12.68;;;;;;;9.68;100.00;101866.50;5022660;28;20566;-79
2021/11/19 02:32:08;;;;;;;20.35;12.45;;;;;;;9.70;100.00;101862.16;5022583;28;20415;-83
2021/11/19 02:34:36;;;;;;;16.25;11.75;;;;;;;9.72;100.00;101863.06;5022635;28;20479;-81
2021/11/19 02:37:18;;;;;;;21.95;12.70;;;;;;;9.72;100.00;101856.97;5018370;28;20479;-82
2021/11/19 02:40:17;;;;;;;20.33;12.23;;;;;;;9.72;100.00;101856.97;5019741;28;20073;-84
2021/11/19 02:43:22;;;;;;;18.10;11.73;;;;;;;9.72;100.00;101852.59;5019312;28;20061;-85
2021/11/19 02:46:11;;;;;;;15.55;12.20;;;;;;;9.71;100.00;101850.88;5007985;28;20053;-86
2021/11/19 02:48:43;;;;;;;17.33;11.38;;;;;;;9.71;100.00;101842.13;5006775;28;20076;-80
2021/11/19 02:51:33;;;;;;;19.70;12.38;;;;;;;9.73;100.00;101837.81;5001905;28;20049;-85
2021/11/19 02:54:21;;;;;;;19.02;12.23;;;;;;;9.73;100.00;101841.28;5018580;28;20503;-84
2021/11/19 02:57:16;;;;;;;18.75;12.52;;;;;;;9.74;100.00;101840.44;5011646;28;20049;-82
2021/11/19 02:59:45;;;;;;;19.90;11.82;;;;;;;9.75;100.00;101850.03;5034525;28;20135;-82
2021/11/19 03:02:18;;;;;;;21.45;12.48;;;;;;;9.74;100.00;101843.06;5017114;28;20041;-82
2021/11/19 03:04:51;;;;;;;17.65;11.13;;;;;;;9.78;100.00;101846.59;5005874;28;20606;-85
2021/11/19 03:07:19;;;;;;;17.75;9.95;;;;;;;9.78;100.00;101854.44;5014209;28;20049;-80
2021/11/19 03:09:59;;;;;;;16.85;11.15;;;;;;;9.81;100.00;101856.22;5018897;28;20060;-78
2021/11/19 03:12:27;;;;;;;17.92;11.13;;;;;;;9.80;100.00;101857.94;5022381;28;20041;-83
2021/11/19 03:14:56;;;;;;;21.15;11.70;;;;;;;9.79;100.00;101850.97;5000927;28;20116;-86
2021/11/19 03:17:25;;;;;;;16.85;11.57;;;;;;;9.79;100.00;101853.59;4998835;28;20049;-81
2021/11/19 03:19:53;;;;;;;18.90;11.48;;;;;;;9.80;100.00;101851.84;5019053;28;20049;-80
2021/11/19 03:22:24;;;;;;;18.00;11.30;;;;;;;9.80;100.00;101855.31;5021043;28;20048;-82
2021/11/19 03:24:51;;;;;;;19.58;11.82;;;;;;;9.81;100.00;101854.47;5001394;28;20037;-80
2021/11/19 03:27:18;;;;;;;17.52;12.25;;;;;;;9.79;100.00;101850.97;5031264;28;20050;-80
2021/11/19 03:29:47;;;;;;;17.38;11.88;;;;;;;9.80;100.00;101857.94;5022871;28;20041;-82
2021/11/19 03:32:20;;;;;;;20.27;12.43;;;;;;;9.78;100.00;101846.59;5023674;28;20053;-82
2021/11/19 03:34:47;;;;;;;22.58;12.68;;;;;;;9.79;100.00;101850.06;5015278;28;20480;-80
2021/11/19 03:37:14;;;;;;;20.35;12.35;;;;;;;9.77;100.00;101857.91;5011740;28;20060;-82
2021/11/19 03:39:41;;;;;;;19.05;13.10;;;;;;;9.77;100.00;101850.06;5017408;28;20116;-79
2021/11/19 03:42:09;;;;;;;21.80;13.15;;;;;;;9.76;100.00;101859.66;5021197;28;20396;-78
2021/11/19 03:44:48;;;;;;;19.10;12.45;;;;;;;9.74;100.00;101855.25;5020103;28;20041;-79
2021/11/19 03:47:29;;;;;;;19.67;12.30;;;;;;;9.75;100.00;101854.38;5012441;28;20052;-78
2021/11/19 03:49:56;;;;;;;21.45;12.90;;;;;;;9.74;100.00;101850.91;5019622;28;20037;-79
2021/11/19 03:52:33;;;;;;;17.70;13.40;;;;;;;9.75;100.00;101857.00;4997590;28;20046;-81
2021/11/19 03:55:08;;;;;;;21.17;12.38;;;;;;;9.74;100.00;101856.13;5018588;28;20491;-79
2021/11/19 03:57:34;;;;;;;22.98;13.60;;;;;;;9.73;100.00;101864.81;5030640;28;20053;-82
2021/11/19 04:00:01;;;;;;;19.33;12.48;;;;;;;9.72;100.00;101864.81;5020344;28;20519;-81
2021/11/19 04:02:29;;;;;;;22.13;12.32;;;;;;;9.70;100.00;101867.41;4999859;28;20507;-84
2021/11/19 04:04:56;;;;;;;16.05;11.13;;;;;;;9.71;100.00;101871.78;5019632;28;20095;-78
2021/11/19 04:07:22;;;;;;;17.63;11.98;;;;;;;9.71;100.00;101858.72;4997152;28;20488;-83
2021/11/19 04:09:50;;;;;;;18.50;11.10;;;;;;;9.72;100.00;101867.41;5021413;28;20152;-82
2021/11/19 04:12:20;;;;;;;17.15;12.50;;;;;;;9.74;100.00;101855.25;5033269;28;20046;-79
2021/11/19 04:14:48;;;;;;;20.75;12.70;;;;;;;9.73;100.00;101867.44;5018825;28;20052;-79
2021/11/19 04:17:14;;;;;;;16.40;11.55;;;;;;;9.76;100.00;101866.59;5012105;28;20053;-78
2021/11/19 04:19:41;;;;;;;20.85;13.80;;;;;;;9.76;100.00;101864.88;5005636;28;20060;-85
2021/11/19 04:22:12;;;;;;;18.25;12.70;;;;;;;9.78;100.00;101864.91;5019758;28;20077;-82
2021/11/19 04:24:54;;;;;;;22.10;12.75;;;;;;;9.75;100.00;101870.97;5019655;28;20046;-80
2021/11/19 04:27:23;;;;;;;22.85;12.65;;;;;;;9.74;100.00;101868.34;5011889;28;20125;-77
2021/11/19 04:29:51;;;;;;;26.13;13.43;;;;;;;9.74;100.00;101869.19;5017142;28;20053;-82
2021/11/19 04:32:21;;;;;;;19.00;12.77;;;;;;;9.74;100.00;101877.03;5004029;28;20053;-80
2021/11/19 04:34:49;;;;;;;20.52;13.55;;;;;;;9.75;100.00;101873.56;5019116;28;20049;-83
2021/11/19 04:37:16;;;;;;;18.83;12.95;;;;;;;9.77;100.00;101884.06;5016290;28;20056;-79
2021/11/19 04:39:43;;;;;;;34.28;16.25;;;;;;;9.74;100.00;101876.19;5018778;28;20499;-79
2021/11/19 04:42:10;;;;;;;22.35;12.90;;;;;;;9.72;100.00;101886.59;5019194;28;20140;-80
2021/11/19 04:44:51;;;;;;;26.77;15.98;;;;;;;9.69;100.00;101881.31;5000565;28;20523;-83
2021/11/19 04:47:19;;;;;;;29.63;16.25;;;;;;;9.70;100.00;101883.09;5019443;28;20072;-81
2021/11/19 04:49:47;;;;;;;30.90;17.00;;;;;;;9.69;100.00;101888.31;5023570;28;20675;-84
2021/11/19 04:52:15;;;;;;;23.75;16.75;;;;;;;9.70;100.00;101895.25;5021698;28;20057;-81
2021/11/19 04:54:44;;;;;;;24.13;16.75;;;;;;;9.68;100.00;101890.03;5020608;28;20072;-81
2021/11/19 04:57:12;;;;;;;33.63;18.83;;;;;;;9.69;100.00;101883.06;5014931;28;20045;-79
2021/11/19 04:59:39;;;;;;;31.90;18.58;;;;;;;9.64;100.00;101885.59;5016145;28;20077;-80
2021/11/19 05:02:16;;;;;;;32.83;19.15;;;;;;;9.64;100.00;101890.84;5000602;28;20042;-86
2021/11/19 05:04:44;;;;;;;31.58;17.33;;;;;;;9.64;100.00;101876.91;5017568;28;20053;-80
2021/11/19 05:07:12;;;;;;;36.22;18.70;;;;;;;9.63;100.00;101896.06;5014318;28;20053;-81
2021/11/19 05:09:39;;;;;;;32.25;19.65;;;;;;;9.63;100.00;101888.22;5030350;28;20056;-87
2021/11/19 05:12:22;;;;;;;34.85;19.88;;;;;;;9.60;100.00;101884.69;5036841;28;20051;-88
2021/11/19 05:14:50;;;;;;;39.90;20.20;;;;;;;9.59;100.00;101884.66;5033793;28;20045;-85
2021/11/19 05:17:21;;;;;;;33.80;19.58;;;;;;;9.59;100.00;101889.88;5033058;28;20291;-82
2021/11/19 05:19:48;;;;;;;37.58;20.98;;;;;;;9.57;100.00;101889.88;5031581;28;20045;-79
2021/11/19 05:22:15;;;;;;;39.70;21.20;;;;;;;9.60;100.00;101878.59;5017239;28;20065;-85
2021/11/19 05:24:42;;;;;;;39.22;22.52;;;;;;;9.58;100.00;101888.13;5019714;28;20129;-81
2021/11/19 05:27:09;;;;;;;41.75;20.52;;;;;;;9.57;100.00;101879.41;5035495;28;20047;-78
2021/11/19 05:29:36;;;;;;;34.80;20.45;;;;;;;9.56;100.00;101893.34;5026306;28;20037;-80
2021/11/19 05:32:04;;;;;;;36.05;20.20;;;;;;;9.57;100.00;101897.72;5021801;28;20061;-81
2021/11/19 05:34:33;;;;;;;35.63;21.30;;;;;;;9.54;100.00;101896.78;5024334;28;20137;-80
2021/11/19 05:37:01;;;;;;;39.50;22.77;;;;;;;9.52;100.00;101895.91;5022960;28;20037;-80
2021/11/19 05:39:28;;;;;;;36.35;20.80;;;;;;;9.51;100.00;101895.00;5005798;28;20056;-80
2021/11/19 05:41:55;;;;;;;35.83;21.17;;;;;;;9.49;100.00;101898.44;5020219;28;20453;-81
2021/11/19 05:44:22;;;;;;;44.85;22.67;;;;;;;9.48;100.00;101892.34;5004979;28;20516;-82
2021/11/19 05:46:51;;;;;;;41.90;21.17;;;;;;;9.49;100.00;101903.66;5004649;28;20064;-81
2021/11/19 05:49:24;;;;;;;40.40;22.42;;;;;;;9.49;100.00;101908.91;5018285;28;20042;-79
2021/11/19 05:51:56;;;;;;;35.70;22.08;;;;;;;9.50;100.00;101908.06;5017639;28;20057;-80
2021/11/19 05:54:25;;;;;;;40.47;21.25;;;;;;;9.50;100.00;101908.06;5018742;28;20044;-81
2021/11/19 05:56:52;;;;;;;40.55;22.13;;;;;;;9.50;100.00;101911.53;5003060;28;20050;-86
2021/11/19 05:59:19;;;;;;;38.88;23.17;;;;;;;9.49;100.00;101903.66;4984392;28;20786;-82
2021/11/19 06:01:47;;;;;;;42.72;22.45;;;;;;;9.49;100.00;101908.91;4994274;28;20050;-79
2021/11/19 06:04:15;;;;;;;38.83;23.10;;;;;;;9.49;100.00;101915.03;5020475;28;20077;-80
2021/11/19 06:06:43;;;;;;;37.38;21.52;;;;;;;9.50;100.00;101916.75;5021298;28;20053;-80
2021/11/19 06:09:16;;;;;;;39.05;22.02;;;;;;;9.49;100.00;101920.25;5019307;28;20095;-81
2021/11/19 06:11:48;;;;;;;40.15;21.63;;;;;;;9.48;100.00;101915.88;5020726;28;20045;-79
2021/11/19 06:14:24;;;;;;;39.88;22.90;;;;;;;9.51;100.00;101915.03;5008053;28;20096;-81
2021/11/19 06:16:59;;;;;;;42.55;23.38;;;;;;;9.52;100.00;101919.41;5007184;28;20053;-79
2021/11/19 06:19:32;;;;;;;36.17;21.48;;;;;;;9.53;100.00;101921.16;4990659;28;20054;-78
2021/11/19 06:22:13;;;;;;;44.85;23.83;;;;;;;9.51;100.00;101923.75;5020363;28;20061;-80
2021/11/19 06:24:45;;;;;;;39.25;23.85;;;;;;;9.51;100.00;101925.50;4991934;28;20064;-79
2021/11/19 06:27:19;;;;;;;40.58;24.20;;;;;;;9.54;100.00;101929.06;5007785;28;20114;-78
2021/11/19 06:29:46;;;;;;;45.58;23.73;;;;;;;9.54;100.00;101936.00;5023306;28;20054;-83
2021/11/19 06:32:15;;;;;;;44.35;23.25;;;;;;;9.54;100.00;101928.16;5019835;28;20705;-80
2021/11/19 06:34:42;;;;;;;41.72;24.05;;;;;;;9.55;100.00;101924.69;5009077;28;20038;-77
2021/11/19 06:37:09;;;;;;;42.53;23.65;;;;;;;9.56;100.00;101922.09;5021254;28;20052;-80
2021/11/19 06:39:39;;;;;;;49.08;24.65;;;;;;;9.55;100.00;101932.53;5004169;28;20032;-83
2021/11/19 06:42:06;;;;;;;45.63;23.70;;;;;;;9.57;100.00;101933.44;5005811;28;20112;-83
2021/11/19 06:44:33;;;;;;;45.13;23.90;;;;;;;9.56;100.00;101921.22;5008376;28;20393;-78
2021/11/19 06:47:00;;;;;;;46.63;24.25;;;;;;;9.57;100.00;101930.84;5005234;28;20089;-79
2021/11/19 06:49:26;;;;;;;42.47;24.17;;;;;;;9.56;100.00;101924.69;5008555;28;20038;-80
2021/11/19 06:51:53;;;;;;;39.97;23.75;;;;;;;9.59;100.00;101927.38;4988340;28;20060;-86
2021/11/19 06:54:20;;;;;;;41.28;23.30;;;;;;;9.59;100.00;101931.72;4989939;28;20048;-82
2021/11/19 06:56:47;;;;;;;37.00;22.10;;;;;;;9.60;100.00;101933.47;5007420;28;20037;-77
2021/11/19 06:59:14;;;;;;;43.30;25.10;;;;;;;9.63;100.00;101932.66;5008222;28;20152;-78
2021/11/19 07:01:41;;;;;;;47.45;24.15;;;;;;;9.64;100.00;101929.19;5005681;28;20412;-81
2021/11/19 07:04:09;;;;;;;38.78;22.77;;;;;;;9.66;100.00;101941.44;5019469;28;20045;-81
2021/11/19 07:06:36;;;;;;;37.42;22.42;;;;;;;9.66;100.00;101937.91;5019844;28;20052;-84
2021/11/19 07:09:07;;;;;;;40.92;23.27;;;;;;;9.69;100.00;101933.63;5009831;28;20041;-83
2021/11/19 07:11:35;;;;;;;38.38;22.52;;;;;;;9.71;100.00;101931.03;5027227;28;20068;-80
2021/11/19 07:14:02;;;;;;;39.05;20.85;;;;;;;9.70;100.00;101926.66;5006391;28;20096;-81
2021/11/19 07:16:31;;;;;;;39.20;21.23;;;;;;;9.72;100.00;101931.03;5007889;28;20045;-79
2021/11/19 07:18:59;;;;;;;35.42;21.20;;;;;;;9.75;100.00;101935.44;5004026;28;20049;-81
2021/11/19 07:21:27;;;;;;;40.80;20.05;;;;;;;9.75;100.00;101931.09;5007897;28;20632;-80
2021/11/19 07:23:55;;;;;;;35.05;20.35;;;;;;;9.78;100.00;101930.28;5003106;28;20056;-84
2021/11/19 07:26:23;;;;;;;33.83;19.67;;;;;;;9.82;100.00;101937.31;5025598;28;21243;-78
2021/11/19 07:28:51;;;;;;;27.60;17.45;;;;;;;9.85;100.00;101939.09;5003408;28;20046;-81
2021/11/19 07:31:18;;;;;;;27.85;17.40;;;;;;;9.86;100.00;101935.63;5004787;28;20049;-78
2021/11/19 07:33:46;;;;;;;25.58;16.45;;;;;;;9.89;100.00;101931.28;5018046;28;20041;-77
2021/11/19 07:36:15;;;;;;;26.73;16.40;;;;;;;9.92;100.00;101935.69;5016133;28;20073;-76
2021/11/19 07:38:43;;;;;;;28.08;16.65;;;;;;;9.95;100.00;101930.53;5019716;28;20057;-83
2021/11/19 07:41:12;;;;;;;25.10;15.55;;;;;;;9.97;100.00;101931.41;4991660;28;20168;-79
2021/11/19 07:43:40;;;;;;;28.88;15.60;;;;;;;10.01;100.00;101941.06;5004462;28;20314;-79
2021/11/19 07:46:09;;;;;;;23.83;15.35;;;;;;;10.04;100.00;101937.63;4999991;28;20045;-81
2021/11/19 07:48:39;;;;;;;22.02;13.98;;;;;;;10.07;100.00;101942.88;4999744;28;20061;-79
2021/11/19 07:51:11;;;;;;;19.73;13.23;;;;;;;10.12;100.00;101942.94;5003826;28;20756;-81
2021/11/19 07:53:38;;;;;;;21.85;13.32;;;;;;;10.16;100.00;101934.28;5011449;28;20037;-80
2021/11/19 07:56:08;;;;;;;21.52;13.85;;;;;;;10.17;100.00;101946.50;5001042;28;20044;-80
2021/11/19 07:58:36;;;;;;;21.40;13.00;;;;;;;10.18;100.00;101945.63;4985708;28;20046;-80
2021/11/19 08:01:07;;;;;;;18.92;12.88;;;;;;;10.23;100.00;101944.88;5001255;28;20056;-80
2021/11/19 08:03:34;;;;;;;18.00;13.02;;;;;;;10.27;100.00;101951.00;4991010;28;20398;-78
2021/11/19 08:06:04;;;;;;;22.35;13.07;;;;;;;10.31;100.00;101954.53;4984884;28;20038;-87
2021/11/19 08:08:34;;;;;;;17.27;10.95;;;;;;;10.39;100.00;101960.78;4989631;28;20052;-80
2021/11/19 08:11:05;;;;;;;15.70;10.98;;;;;;;10.45;100.00;101962.63;5017838;28;20052;-79
2021/11/19 08:13:32;;;;;;;17.63;12.38;;;;;;;10.48;100.00;101955.69;5005337;28;20052;-78
2021/11/19 08:15:59;;;;;;;20.15;10.50;;;;;;;10.55;100.00;101962.72;5017412;28;20065;-82
2021/11/19 08:18:32;;;;;;;17.52;11.25;;;;;;;10.59;100.00;101963.66;5017972;28;20456;-80
2021/11/19 08:21:02;;;;;;;15.20;10.70;;;;;;;10.65;100.00;101962.84;5020215;28;20038;-77
2021/11/19 08:23:37;;;;;;;16.83;10.85;;;;;;;10.68;100.00;101950.66;5018671;28;20054;-80
2021/11/19 08:26:28;;;;;;;17.50;10.98;;;;;;;10.71;100.00;101953.31;5020139;28;20045;-79
2021/11/19 08:28:55;;;;;;;17.92;11.65;;;;;;;10.70;100.00;101956.81;5014959;28;20042;-80
2021/11/19 08:31:24;;;;;;;17.58;11.80;;;;;;;10.72;100.00;101959.44;5003519;28;20129;-82
2021/11/19 08:33:51;;;;;;;16.05;11.25;;;;;;;10.72;100.00;101957.69;5009617;28;20041;-78
2021/11/19 08:36:23;;;;;;;18.70;12.23;;;;;;;10.75;100.00;101959.47;5002425;28;20060;-81
2021/11/19 08:38:50;;;;;;;20.92;12.18;;;;;;;10.77;100.00;101955.13;4987858;28;20034;-85
2021/11/19 08:41:18;;;;;;;17.88;11.65;;;;;;;10.79;100.00;101961.25;5001964;28;20052;-83
2021/11/19 08:43:48;;;;;;;17.90;12.15;;;;;;;10.80;100.00;101954.31;5004764;28;20037;-79
2021/11/19 08:46:28;;;;;;;17.40;11.45;;;;;;;10.85;100.00;101953.47;5016365;28;21282;-79
2021/11/19 08:48:55;;;;;;;17.33;11.75;;;;;;;10.81;100.00;101958.66;5019747;28;20539;-79
2021/11/19 08:51:26;;;;;;;17.15;12.45;;;;;;;10.81;100.00;101963.88;5033231;28;20042;-79
2021/11/19 08:53:56;;;;;;;17.27;11.75;;;;;;;10.81;100.00;101950.78;5015877;28;20117;-79
2021/11/19 08:56:24;;;;;;;18.35;12.00;;;;;;;10.81;100.00;101958.66;5005332;28;20045;-79
2021/11/19 08:58:52;;;;;;;17.65;11.65;;;;;;;10.80;100.00;101959.53;5008454;28;20037;-84
2021/11/19 09:01:21;;;;;;;18.95;11.18;;;;;;;10.80;100.00;101962.16;5012929;28;20399;-79
2021/11/19 09:03:49;;;;;;;20.15;13.50;;;;;;;10.83;100.00;101957.81;5003828;28;20106;-81
2021/11/19 09:06:21;;;;;;;18.75;12.38;;;;;;;10.81;100.00;101956.94;5003384;28;20057;-78
2021/11/19 09:08:50;;;;;;;20.05;13.25;;;;;;;10.84;100.00;101953.47;5027794;28;20428;-83
2021/11/19 09:11:21;;;;;;;19.63;13.77;;;;;;;10.84;100.00;101949.09;5044952;28;20049;-83
2021/11/19 09:13:51;;;;;;;22.95;13.18;;;;;;;10.87;100.00;101959.63;5031826;28;20033;-82
2021/11/19 09:16:23;;;;;;;17.73;12.27;;;;;;;10.88;100.00;101973.59;5009442;28;20117;-81
2021/11/19 09:19:10;;;;;;;21.38;14.02;;;;;;;10.89;100.00;101962.25;5037973;28;20119;-85
2021/11/19 09:21:47;;;;;;;23.17;13.07;;;;;;;10.95;100.00;101962.31;5001543;28;20077;-84
2021/11/19 09:24:23;;;;;;;17.73;12.18;;;;;;;10.99;100.00;101964.13;5024349;28;20041;-84
2021/11/19 09:27:02;;;;;;;21.45;12.73;;;;;;;11.06;100.00;101965.91;5022860;28;20068;-84
2021/11/19 09:29:44;;;;;;;17.83;11.60;;;;;;;11.14;100.00;101971.22;5010748;28;20049;-80
2021/11/19 09:32:12;;;;;;;15.55;11.40;;;;;;;11.16;100.00;101968.63;5003859;28;20062;-80
2021/11/19 09:34:43;;;;;;;18.58;12.07;;;;;;;11.20;100.00;101976.53;5021563;28;20288;-79
2021/11/19 09:37:12;;;;;;;17.60;12.38;;;;;;;11.19;100.00;101973.91;5019023;28;20045;-82
2021/11/19 09:39:42;;;;;;;14.45;11.13;;;;;;;11.15;100.00;101980.00;5019073;28;20045;-79
2021/11/19 09:43:02;;;;;;;13.23;10.52;;;;;;;11.15;100.00;101974.75;5024517;28;20116;-84
2021/11/19 09:46:08;;;;;;;12.95;10.15;;;;;;;11.17;100.00;101970.38;5021770;28;20076;-79
2021/11/19 09:49:11;;;;;;;14.13;10.63;;;;;;;11.25;100.00;101973.94;5009068;28;20787;-83
2021/11/19 09:52:42;;;;;;;16.02;11.32;;;;;;;11.31;99.75;101978.38;5000114;28;20045;-82
2021/11/19 09:55:46;;;;;;;17.35;11.45;;;;;;;11.32;99.77;101970.53;5000951;28;20042;-80
2021/11/19 09:58:40;;;;;;;12.90;9.70;;;;;;;11.33;99.37;101972.31;4986160;28;20050;-78
2021/11/19 10:01:52;;;;;;;16.35;11.75;;;;;;;11.35;98.93;101969.69;4983936;28;20111;-79
2021/11/19 10:04:46;;;;;;;14.65;10.68;;;;;;;11.40;98.90;101967.97;4979746;28;20133;-81
2021/11/19 10:07:53;;;;;;;;;;;;;;;11.41;98.21;101968.00;4980615;28;20546;-81
2021/11/19 10:10:35;;;;;;;17.52;11.90;;;;;;;11.38;98.45;101967.97;5003624;28;19925;-82
2021/11/19 10:13:16;;;;;;;16.60;12.10;;;;;;;11.42;98.28;101958.41;4982654;28;20486;-80
2021/11/19 10:16:23;;;;;;;17.02;11.50;;;;;;;11.36;98.77;101961.81;4980731;28;20080;-78
2021/11/19 10:19:15;;;;;;;15.38;10.85;;;;;;;11.41;98.43;101956.63;4985124;28;20046;-81
2021/11/19 10:22:01;;;;;;;15.75;12.05;;;;;;;11.44;98.13;101958.41;4973901;28;20038;-80
2021/11/19 10:24:45;;;;;;;14.80;10.93;;;;;;;11.45;97.57;101923.47;4999691;28;20049;-81
2021/11/19 10:27:24;;;;;;;15.68;11.07;;;;;;;11.50;98.09;101953.19;4980150;28;20346;-79
2021/11/19 10:30:13;;;;;;;17.27;12.95;;;;;;;11.58;97.37;101954.16;4997686;28;20061;-77
2021/11/19 10:32:40;;;;;;;14.25;10.60;;;;;;;11.62;96.82;101957.69;4980975;28;20058;-80
2021/11/19 10:35:10;;;;;;;20.40;13.85;;;;;;;11.64;96.35;101953.31;4968303;28;20385;-83
2021/11/19 10:38:07;;;;;;;18.10;12.77;;;;;;;11.65;95.92;101947.19;4982109;28;20054;-81
2021/11/19 10:41:25;;;;;;;16.10;11.13;;;;;;;11.68;96.27;101958.59;4981560;28;20753;-79
2021/11/19 10:44:12;;;;;;;15.65;12.23;;;;;;;11.70;95.68;101955.97;4969833;28;20503;-80
2021/11/19 10:47:27;;;;;;;17.67;12.25;;;;;;;11.72;95.40;101957.75;4990114;28;20065;-86
2021/11/19 10:50:31;;;;;;;15.77;12.10;;;;;;;11.71;95.61;101948.13;4984420;28;20046;-85
2021/11/19 10:53:39;;;;;;;19.80;11.55;;;;;;;11.67;95.79;101954.22;5001343;28;20104;-84
2021/11/19 10:56:12;;;;;;;19.98;12.30;;;;;;;11.67;95.41;101948.09;4983027;28;20049;-86
2021/11/19 10:58:49;;;;;;;17.90;11.85;;;;;;;11.62;95.46;101953.31;5002167;28;20477;-82
2021/11/19 11:01:39;;;;;;;16.85;11.77;;;;;;;11.61;95.07;101948.91;4998469;28;20142;-78
2021/11/19 11:04:43;;;;;;;17.60;11.25;;;;;;;11.63;95.15;101946.31;4965991;28;20129;-82
2021/11/19 11:07:10;;;;;;;13.57;10.23;;;;;;;11.61;95.08;101950.69;4998437;28;20054;-87
2021/11/19 11:09:55;;;;;;;17.33;11.23;;;;;;;11.60;94.95;101941.91;4997160;28;20034;-79
2021/11/19 11:12:29;;;;;;;14.40;11.05;;;;;;;11.64;95.35;101950.69;4982205;28;20053;-78
2021/11/19 11:15:15;;;;;;;14.70;11.68;;;;;;;11.69;94.37;101938.47;4995873;28;20085;-83
2021/11/19 11:18:13;;;;;;;16.00;11.23;;;;;;;11.79;93.96;101942.94;4999182;28;20054;-79
2021/11/19 11:20:52;;;;;;;14.02;9.93;;;;;;;11.84;93.21;101938.59;4996573;28;20046;-80
2021/11/19 11:23:43;;;;;;;15.93;12.35;;;;;;;11.89;92.67;101941.25;4985291;28;20041;-82
2021/11/19 11:26:14;;;;;;;15.35;11.50;;;;;;;11.95;92.60;101937.78;4997384;28;20038;-82
2021/11/19 11:28:49;;;;;;;21.67;11.77;;;;;;;12.00;92.67;101936.09;4986257;28;20592;-79
2021/11/19 11:31:54;;;;;;;17.17;10.43;;;;;;;11.99;92.30;101935.19;4978709;28;20050;-77
2021/11/19 11:34:55;;;;;;;16.30;10.43;;;;;;;12.01;92.18;101933.47;4980853;28;20057;-81
2021/11/19 11:37:59;;;;;;;14.75;10.80;;;;;;;11.94;92.02;101941.28;4978227;28;20540;-79
2021/11/19 11:40:37;;;;;;;16.38;10.43;;;;;;;12.00;92.44;101951.84;4986150;28;20054;-81
2021/11/19 11:43:18;;;;;;;17.88;12.02;;;;;;;12.04;92.15;101951.00;4998921;28;20047;-79